• Join FlightAware (Why Join?)
  • Login
  • US Flag 
03:52PM EDT


 

Airport Tracker/Info


-or-


 

Live Flight TrackerFlight Track Log ✈ DAL1830 ✈ 23-Apr-2013 ✈ KSLC - KJFK

Flight Track Log - Related Links

Times and Time Zones

All times are in EDT time to prevent confusion due to time zone crossing. See the DAL1830 flight status page for this flight to view local times or setup timezone preferences in your user account.

Time Position Orientation Groundspeed Altitude Reporting Facility
EDT Latitude Longitude Course Direction KTS MPH feet Rate Location/Type
07:14PM 40.8014 -111.9642 101° East 166 191 4,800  Level Salt Lake Center
07:14PM 40.8464 -111.9669 357° North 193 222 6,300 2,340 Climbing Salt Lake Center
07:15PM 40.9147 -111.9608 North 262 302 9,100 2,280 Climbing Salt Lake Center
07:16PM 40.9261 -111.8589 82° East 300 345 11,000 1,920 Climbing Salt Lake Center
07:17PM 41.0755 -111.7299 148° Southeast  Level FlightAware Approximate
07:17PM 40.9244 -111.7314 91° East 358 412 13,100  Level Salt Lake Center
07:18PM 40.9585 -111.6341 148° Southeast  Level FlightAware Approximate
07:18PM 40.9222 -111.5633 91° East 390 449 16,200  Level Salt Lake Center
07:19PM 40.9120 -111.4837 101° East  Level FlightAware Approximate
07:19PM 40.9106 -111.4183 96° East 399 459 18,500  Level Salt Lake Center
07:21PM 40.8950 -111.2650 98° East 420 483 20,500 1,920 Climbing Salt Lake Center
07:22PM 40.8736 -111.1042 100° East 442 509 22,500 1,740 Climbing Salt Lake Center
07:23PM 40.8533 -110.9358 99° East 463 533 24,100 1,620 Climbing Salt Lake Center
07:24PM 40.8333 -110.7611 99° East 481 554 25,900 1,800 Climbing Salt Lake Center
07:25PM 40.8111 -110.5744 99° East 487 560 27,900 1,560 Climbing Salt Lake Center
07:26PM 40.7861 -110.3747 99° East 495 570 29,200 1,020 Climbing Salt Lake Center
07:27PM 40.7603 -110.1836 100° East 511 588 30,100 1,020 Climbing Salt Lake Center
07:28PM 40.7375 -110.0006 99° East 525 604 31,300 1,500 Climbing Salt Lake Center
07:29PM 40.7244 -109.7903 95° East 518 596 33,200 1,380 Climbing Salt Lake Center
07:30PM 40.7128 -109.6114 95° East 512 589 34,500 1,200 Climbing Salt Lake Center
07:31PM 40.6950 -109.3747 96° East 507 583 36,000 1,020 Climbing Salt Lake Center
07:32PM 40.6789 -109.1872 96° East 510 587 36,700 480 Climbing Salt Lake Center
07:33PM 40.6653 -109.0100 96° East 513 590 37,000 120 Climbing Salt Lake Center
07:34PM 40.6492 -108.8028 96° East 512 589 37,000  Level Salt Lake Center
07:35PM 40.6403 -108.6864 96° East 512 589 37,000  Level Denver Center
07:36PM 40.6264 -108.5081 96° East 511 588 37,000  Level Denver Center
07:36PM 40.6189 -108.4192 96° East 509 586 37,000  Level Salt Lake Center
07:37PM 40.6039 -108.2447 96° East 503 579 37,000  Level Salt Lake Center
07:38PM 40.5847 -108.0406 97° East 504 580 37,000  Level Salt Lake Center
07:39PM 40.5778 -107.9489 96° East 508 585 37,000  Level Denver Center
07:40PM 40.5603 -107.7444 96° East 506 582 37,000  Level Denver Center
07:41PM 40.5450 -107.5678 96° East 505 581 37,000  Level Denver Center
07:42PM 40.5258 -107.3614 97° East 508 585 37,000  Level Denver Center
07:43PM 40.5367 -107.1900 85° East 501 577 37,000  Level Denver Center
07:44PM 40.5647 -107.0100 78° East 500 575 37,000  Level Denver Center
07:45PM 40.5919 -106.8306 79° East 499 574 37,000  Level Denver Center
07:46PM 40.6192 -106.6481 79° East 505 581 37,000  Level Denver Center
07:47PM 40.6497 -106.4422 79° East 500 575 37,000  Level Denver Center
07:48PM 40.6781 -106.2383 80° East 506 582 37,000  Level Denver Center
07:49PM 40.7039 -106.0550 79° East 506 582 37,000  Level Denver Center
07:50PM 40.7308 -105.8697 79° East 508 585 37,000  Level Denver Center
07:51PM 40.7561 -105.6828 80° East 512 589 37,000  Level Denver Center
07:52PM 40.7808 -105.4994 80° East 504 580 37,000  Level Denver Center
07:53PM 40.8067 -105.3161 79° East 502 578 37,000  Level Denver Center
07:54PM 40.8317 -105.1297 80° East 508 585 37,000  Level Denver Center
07:55PM 40.8556 -104.9442 80° East 508 585 37,000  Level Denver Center
07:56PM 40.8839 -104.7306 80° East 500 575 37,000  Level Denver Center
07:57PM 40.9072 -104.5450 80° East 505 581 37,000  Level Denver Center
07:58PM 40.9311 -104.3569 80° East 511 588 37,000  Level Denver Center
08:00PM 40.9553 -104.1681 80° East 514 592 37,000  Level Denver Center
08:01PM 40.9783 -103.9814 81° East 510 587 37,000  Level Denver Center
08:02PM 41.0022 -103.7800 81° East 511 588 37,000  Level Denver Center
08:03PM 41.0236 -103.6011 81° East 515 593 37,000  Level Denver Center
08:04PM 41.0489 -103.3908 81° East 519 597 37,000  Level Denver Center
08:05PM 41.0703 -103.2094 81° East 522 601 37,000  Level Denver Center
08:06PM 41.0936 -102.9975 82° East 521 600 37,000  Level Denver Center
08:07PM 41.1108 -102.7950 83° East 526 605 37,000  Level Denver Center
08:08PM 41.1261 -102.6092 84° East 529 609 37,000  Level Denver Center
08:09PM 41.1422 -102.3919 84° East 530 610 37,000  Level Denver Center
08:10PM 41.1553 -102.2056 85° East 528 608 37,000  Level Denver Center
08:11PM 41.1692 -102.0175 84° East 533 613 37,000  Level Denver Center
08:12PM 41.1850 -101.7997 84° East 532 612 37,000  Level Denver Center
08:13PM 41.1983 -101.6125 85° East 531 611 37,000  Level Denver Center
08:14PM 41.2133 -101.3947 85° East 529 609 37,000  Level Denver Center
08:15PM 41.2253 -101.2083 85° East 527 606 37,000  Level Denver Center
08:16PM 41.2400 -100.9889 85° East 530 610 37,000  Level Denver Center
08:17PM 41.2511 -100.8022 85° East 526 605 37,000  Level Denver Center
08:18PM 41.2631 -100.6150 85° East 527 606 37,000  Level Denver Center
08:19PM 41.2756 -100.3983 86° East 523 602 37,000  Level Denver Center
08:20PM 41.2858 -100.2136 86° East 522 601 37,000  Level Denver Center
08:21PM 41.2989 -99.9961 85° East 526 605 37,000  Level Denver Center
08:22PM 41.3089 -99.8103 86° East 525 604 37,000  Level Denver Center
08:23PM 41.3200 -99.5928 86° East 527 606 37,000  Level Denver Center
08:24PM 41.3297 -99.3889 86° East 530 610 37,000  Level Denver Center
08:25PM 41.3394 -99.1928 86° East 529 609 37,000  Level Denver Center
08:26PM 41.3483 -98.9933 87° East 531 611 37,000  Level Denver Center
08:27PM 41.3539 -98.8719 86° East 531 611 37,000  Level Minneapolis Center
08:28PM 41.3633 -98.6753 86° East 533 613 37,000  Level Minneapolis Center
08:29PM 41.3708 -98.4783 87° East 533 613 37,000  Level Minneapolis Center
08:30PM 41.4008 -98.2772 79° East 539 620 37,000  Level Minneapolis Center
08:31PM 41.4586 -98.1006 66° East 538 619 37,000  Level Minneapolis Center
08:32PM 41.5175 -97.9186 67° East 534 615 37,000  Level Minneapolis Center
08:33PM 41.5886 -97.6978 67° East 538 619 37,000  Level Minneapolis Center
08:34PM 41.6467 -97.5144 67° East 536 617 37,000  Level Minneapolis Center
08:35PM 41.7061 -97.3286 67° East 539 620 37,000  Level Minneapolis Center
08:36PM 41.7533 -97.1800 67° East 541 623 37,000  Level Minneapolis Center
08:37PM 41.8236 -96.9539 67° East 543 625 37,000  Level Minneapolis Center
08:38PM 41.8811 -96.7656 68° East 543 625 37,000  Level Minneapolis Center
08:39PM 41.9397 -96.5786 67° East 542 624 37,000  Level Minneapolis Center
08:40PM 42.0086 -96.3514 68° East 543 625 37,000  Level Minneapolis Center
08:41PM 42.0547 -96.2011 68° East 541 623 37,000  Level Minneapolis Center
08:43PM 42.1231 -95.9733 68° East 542 624 37,000  Level Minneapolis Center
08:44PM 42.1800 -95.7825 68° East 544 626 37,000  Level Minneapolis Center
08:45PM 42.2364 -95.5936 68° East 543 625 37,000  Level Minneapolis Center
08:46PM 42.2919 -95.4044 68° East 541 623 37,000  Level Minneapolis Center
08:47PM 42.3469 -95.2161 68° East 539 620 37,000  Level Minneapolis Center
08:48PM 42.4128 -94.9883 69° East 540 621 37,000  Level Minneapolis Center
08:49PM 42.4672 -94.7981 69° East 540 621 37,000  Level Minneapolis Center
08:50PM 42.5097 -94.6450 69° East 541 623 37,000  Level Minneapolis Center
08:51PM 42.5769 -94.4103 69° East 540 621 37,000  Level Minneapolis Center
08:52PM 42.6125 -94.2167 76° East 531 611 37,000  Level Minneapolis Center
08:53PM 42.6128 -94.0183 90° East 529 609 37,000  Level Minneapolis Center
08:54PM 42.6139 -93.8189 89° East 532 612 37,000  Level Minneapolis Center
08:55PM 42.6133 -93.6583 90° East 535 616 37,000  Level Minneapolis Center
08:56PM 42.6167 -93.3783 89° East 536 617 37,000  Level Minneapolis Center
08:57PM 42.6169 -93.1758 90° East 538 619 37,000  Level Minneapolis Center
08:58PM 42.6169 -92.9758 90° East 536 617 37,000  Level Minneapolis Center
08:59PM 42.6158 -92.7767 90° East 533 613 37,000  Level Minneapolis Center
09:00PM 42.6139 -92.4953 90° East 537 618 37,000  Level Minneapolis Center
09:01PM 42.6133 -92.2933 90° East 539 620 37,000  Level Minneapolis Center
09:02PM 42.6111 -92.0906 91° East 543 625 37,000  Level Minneapolis Center
09:03PM 42.6103 -92.0078 91° East 547 629 37,000  Level Chicago Center
09:04PM 42.6072 -91.7669 91° East 545 627 37,000  Level Chicago Center
09:05PM 42.6042 -91.5669 91° East 548 631 37,000  Level Chicago Center
09:06PM 42.6019 -91.3672 91° East 545 627 37,000  Level Chicago Center
09:07PM 42.5989 -91.1664 91° East 542 624 37,000  Level Chicago Center
09:08PM 42.5942 -90.9222 91° East 545 627 37,000  Level Chicago Center
09:09PM 42.5889 -90.7183 92° East 545 627 37,000  Level Chicago Center
09:10PM 42.5850 -90.5181 91° East 538 619 37,000  Level Chicago Center
09:11PM 42.5794 -90.3153 92° East 541 623 37,000  Level Chicago Center
09:12PM 42.5744 -90.1144 92° East 538 619 37,000 180 Level Chicago Center
09:13PM 42.5672 -89.8756 92° East 538 619 37,400 480 Climbing Chicago Center
09:14PM 42.5631 -89.6728 92° East 540 621 38,100 720 Climbing Chicago Center
09:15PM 42.5564 -89.4658 92° East 547 629 39,000 420 Climbing Chicago Center
09:16PM 42.5486 -89.2631 93° East 543 625 39,000  Level Chicago Center
09:17PM 42.5414 -89.0267 92° East 539 620 39,000  Level Chicago Center
09:18PM 42.5342 -88.8258 93° East 537 618 39,000  Level Chicago Center
09:19PM 42.5264 -88.6253 93° East 535 616 39,000  Level Chicago Center
09:20PM 42.5181 -88.4275 93° East 530 610 39,000  Level Chicago Center
09:21PM 42.5078 -88.1961 93° East 529 609 39,000  Level Chicago Center
09:22PM 42.4989 -87.9978 93° East 529 609 39,000  Level Chicago Center
09:24PM 42.4997 -87.7956 90° East 536 617 39,000  Level Chicago Center
09:25PM 42.4992 -87.5786 90° East 535 616 39,000  Level Chicago Center
09:26PM 42.4981 -87.3792 90° East 532 612 39,000  Level Chicago Center
09:27PM 42.4975 -87.1817 90° East 528 608 39,000  Level Chicago Center
09:28PM 42.4961 -86.9836 90° East 529 609 39,000  Level Chicago Center
09:29PM 42.4933 -86.7853 91° East 529 609 39,000  Level Chicago Center
09:30PM 42.4908 -86.5942 91° East 528 608 39,000  Level Chicago Center
09:31PM 42.4872 -86.3561 91° East 531 611 39,000  Level Chicago Center
09:32PM 42.4858 -86.1592 90° East 528 608 39,000  Level Chicago Center
09:33PM 42.4819 -85.9647 91° East 525 604 39,000  Level Chicago Center
09:34PM 42.4789 -85.7703 91° East 522 601 39,000  Level Chicago Center
09:35PM 42.4742 -85.5758 92° East 521 600 39,000  Level Chicago Center
09:36PM 42.4703 -85.3417 91° East 523 602 39,000  Level Chicago Center
09:37PM 42.4653 -85.1472 92° East 521 600 39,000  Level Chicago Center
09:38PM 42.4600 -84.9525 92° East 521 600 39,000  Level Chicago Center
09:39PM 42.4558 -84.7567 92° East 522 601 39,000  Level Chicago Center
09:40PM 42.4500 -84.5597 92° East 524 603 39,000  Level Chicago Center
09:41PM 42.4403 -84.3481 93° East 520 598 39,000  Level Cleveland Center
09:42PM 42.4358 -84.1564 92° East 515 593 39,000  Level Cleveland Center
09:43PM 42.4292 -83.9647 93° East 515 593 39,000  Level Cleveland Center
09:44PM 42.4222 -83.7672 93° East 515 593 39,000  Level Cleveland Center
09:45PM 42.4186 -83.6011 92° East 515 593 39,000 -60 Level Cleveland Center
09:46PM 42.4072 -83.3842 94° East 521 600 38,900 -480 Descending Cleveland Center
09:47PM 42.3989 -83.2094 94° East 521 600 38,100 -480 Descending Cleveland Center
09:48PM 42.3906 -83.0178 93° East 521 600 38,000 -60 Descending Cleveland Center
09:49PM 42.3842 -82.8236 92° East 516 594 38,000  Level Cleveland Center
09:50PM 42.3753 -82.6322 94° East 516 594 38,000  Level Cleveland Center
09:51PM 42.3681 -82.4381 93° East 516 594 38,000  Level Cleveland Center
09:52PM 42.3606 -82.2467 93° East 516 594 38,000  Level Cleveland Center
09:53PM 42.3528 -82.0497 93° East 522 601 38,000  Level Cleveland Center
09:54PM 42.3425 -81.8614 94° East 516 594 38,000  Level Cleveland Center
09:55PM 42.3344 -81.6533 93° East 511 588 38,000  Level Cleveland Center
09:56PM 42.3256 -81.4650 94° East 505 581 38,000  Level Cleveland Center
09:57PM 42.3142 -81.2739 95° East 505 581 38,000  Level Cleveland Center
09:58PM 42.3069 -81.0800 93° East 505 581 38,000  Level Cleveland Center
09:59PM 42.2972 -80.8947 94° East 500 575 38,000  Level Cleveland Center
10:00PM 42.2850 -80.7011 95° East 500 575 38,000  Level Cleveland Center
10:01PM 42.2706 -80.5158 96° East 506 582 38,000  Level Cleveland Center
10:02PM 42.2411 -80.3222 102° East 506 582 38,000  Level Cleveland Center
10:03PM 42.2197 -80.1542 100° East 506 582 38,000  Level Cleveland Center
10:04PM 42.1894 -79.9442 101° East 511 588 38,000  Level Cleveland Center
10:05PM 42.1633 -79.7539 100° East 511 588 38,000  Level Cleveland Center
10:06PM 42.1347 -79.5611 101° East 511 588 38,000  Level Cleveland Center
10:07PM 42.1036 -79.3714 102° East 516 594 38,000  Level Cleveland Center
10:08PM 42.0764 -79.1817 101° East 516 594 38,000  Level Cleveland Center
10:09PM 42.0447 -78.9867 102° East 522 601 38,000 -60 Level Cleveland Center
10:10PM 42.0169 -78.7972 101° East 522 601 37,900 -300 Descending Cleveland Center
10:11PM 41.9869 -78.6108 102° East 522 601 37,400 -480 Descending Cleveland Center
10:12PM 41.9583 -78.4219 101° East 522 601 37,000 -240 Descending Cleveland Center
10:13PM 41.9278 -78.2358 102° East 522 601 37,000  Level Cleveland Center
10:15PM 41.8781 -77.9386 103° East 516 594 37,000  Level New York Center
10:16PM 41.8389 -77.7533 106° East 521 600 37,000  Level New York Center
10:17PM 41.7911 -77.5731 110° East 516 594 37,000  Level New York Center
10:18PM 41.7431 -77.3931 110° East 516 594 37,000  Level New York Center
10:19PM 41.6947 -77.2103 109° East 516 594 37,000  Level New York Center
10:20PM 41.6458 -77.0308 110° East 521 600 37,000  Level New York Center
10:21PM 41.5967 -76.8542 110° East 516 594 37,000  Level New York Center
10:22PM 41.5492 -76.6806 110° East 510 587 37,000  Level New York Center
10:23PM 41.5125 -76.5417 109° East 505 581 37,000 -960 Level New York Center
10:24PM 41.4592 -76.3489 110° East 499 574 35,100 -1,020 Descending New York Center
10:25PM 41.4092 -76.1703 110° East 505 581 35,000 -540 Descending New York Center
10:26PM 41.3606 -75.9978 111° Southeast 505 581 34,100 -1,920 Descending New York Center
10:27PM 41.3058 -75.8169 112° Southeast 492 566 31,300 -3,000 Descending New York Center
10:28PM 41.2625 -75.6619 110° East 497 572 28,200 -3,000 Descending New York Center
10:29PM 41.2086 -75.5008 114° Southeast 489 563 25,200 -2,700 Descending New York Center
10:30PM 41.1581 -75.3511 114° Southeast 461 531 22,800 -1,800 Descending New York Center
10:31PM 41.1153 -75.2217 114° Southeast 425 489 21,700 -1,500 Descending New York Center
10:32PM 41.0758 -75.1033 114° Southeast 379 436 19,800 -1,380 Descending New York Center
10:33PM 41.0364 -74.9853 114° Southeast 345 397 19,000 -420 Descending New York Center
10:34PM 40.9989 -74.8675 113° Southeast 338 389 19,000  Level New York Center
10:35PM 40.9806 -74.7317 100° East 345 397 19,000  Level New York Center
10:36PM 40.9681 -74.6072 98° East 339 390 19,000  Level New York Center
10:37PM 40.9533 -74.4828 99° East 332 382 19,000  Level New York Center
10:38PM 40.9406 -74.3586 98° East 332 382 19,000  Level New York Center
10:39PM 40.9253 -74.2369 99° East 332 382 19,000  Level New York Center
10:40PM 40.9039 -74.1150 103° East 332 382 19,000 -660 Level New York Center
10:41PM 40.8500 -74.0000 122° Southeast 346 398 17,700 -1,740 Descending New York TRACON
10:42PM 40.7833 -73.8667 123° Southeast 338 389 15,200 -1,980 Descending New York TRACON
10:43PM 40.7333 -73.8000 135° Southeast 327 376 13,800 -1,860 Descending New York TRACON
10:44PM 40.6667 -73.7167 137° Southeast 390 449 11,700 -2,100 Descending New York TRACON
10:45PM 40.5833 -73.6833 163° South 320 368 9,600 -2,100 Descending New York TRACON
10:46PM 40.4833 -73.6833 180° South 288 331 7,300 -1,740 Descending New York TRACON
10:47PM 40.4333 -73.7167 207° Southwest 251 289 6,200 -1,200 Descending New York TRACON
10:48PM 40.3833 -73.7833 225° Southwest 236 272 5,000 -1,020 Descending New York TRACON
10:49PM 40.3500 -73.8333 229° Southwest 203 234 4,100 -960 Descending New York TRACON
10:50PM 40.3433 -73.8864 261° West 200 230 3,400 -1,080 Descending New York Center
10:51PM 40.3886 -73.9156 334° Northwest 138 159 2,300 -900 Descending New York Center
10:51PM 40.4000 -73.9167 356° North 172 198 2,200 -240 Descending New York TRACON
10:52PM 40.4500 -73.9000 14° North 164 189 2,000 -120 Descending New York TRACON
10:53PM 40.4833 -73.8833 21° North 165 190 2,000  Level New York TRACON